createdAt,value
2018-05-15T00:00:32.466Z,101771.14
2018-05-15T00:02:58.869Z,101767.66
2018-05-15T00:05:24.997Z,101770.74
2018-05-15T00:07:51.151Z,101773.44
2018-05-15T00:10:17.437Z,101770.88
2018-05-15T00:12:43.579Z,101765.94
2018-05-15T00:15:09.712Z,101775.06
2018-05-15T00:17:35.959Z,101776.34
2018-05-15T00:20:02.090Z,101772.37
2018-05-15T00:22:28.222Z,101769.77
2018-05-15T00:24:54.372Z,101778.64
2018-05-15T00:27:20.841Z,101782.22
2018-05-15T00:29:46.998Z,101777.80
2018-05-15T00:32:13.400Z,101778.25
2018-05-15T00:34:39.549Z,101777.89
2018-05-15T00:37:05.689Z,101781.95
2018-05-15T00:39:31.964Z,101773.63
2018-05-15T00:41:58.086Z,101775.51
2018-05-15T00:44:24.218Z,101782.17
2018-05-15T00:46:50.488Z,101779.53
2018-05-15T00:49:16.637Z,101781.34
2018-05-15T00:51:42.765Z,101780.11
2018-05-15T00:54:08.922Z,101781.03
2018-05-15T00:56:35.481Z,101781.52
2018-05-15T00:59:01.604Z,101786.86
2018-05-15T01:01:27.731Z,101786.90
2018-05-15T01:03:53.989Z,101778.12
2018-05-15T01:06:20.114Z,101789.16
2018-05-15T01:08:46.237Z,101791.00
2018-05-15T01:11:12.514Z,101792.77
2018-05-15T01:13:38.974Z,101792.42
2018-05-15T01:16:05.097Z,101799.58
2018-05-15T01:18:31.534Z,101798.77
2018-05-15T01:20:57.925Z,101800.02
2018-05-15T01:23:24.402Z,101799.92
2018-05-15T01:25:50.525Z,101796.80
2018-05-15T01:28:16.685Z,101796.84
2018-05-15T01:30:42.832Z,101797.77
2018-05-15T01:33:08.963Z,101790.66
2018-05-15T01:35:35.250Z,101795.12
2018-05-15T01:38:01.373Z,101789.47
2018-05-15T01:40:27.608Z,101792.16
2018-05-15T01:42:54.275Z,101790.39
2018-05-15T01:45:20.653Z,101791.67
2018-05-15T01:47:46.781Z,101789.95
2018-05-15T01:50:12.945Z,101784.30
2018-05-15T01:52:39.069Z,101783.86
2018-05-15T01:55:05.225Z,101786.99
2018-05-15T01:57:31.347Z,101789.77
2018-05-15T01:59:57.817Z,101786.28
2018-05-15T02:02:23.944Z,101789.37
2018-05-15T02:04:50.189Z,101790.73
2018-05-15T02:07:16.317Z,101785.87
2018-05-15T02:09:42.468Z,101781.03
2018-05-15T02:12:08.725Z,101782.84
2018-05-15T02:14:34.854Z,101778.91
2018-05-15T02:17:00.981Z,101781.98
2018-05-15T02:19:27.141Z,101781.20
2018-05-15T02:21:53.270Z,101785.25
2018-05-15T02:24:19.665Z,101780.84
2018-05-15T02:26:45.901Z,101777.80
2018-05-15T02:29:12.059Z,101778.45
2018-05-15T02:31:38.477Z,101775.52
2018-05-15T02:34:05.118Z,101780.06
2018-05-15T02:36:31.256Z,101780.94
2018-05-15T02:38:57.389Z,101774.80
2018-05-15T02:41:23.537Z,101767.83
2018-05-15T02:43:49.668Z,101771.36
2018-05-15T02:46:15.940Z,101773.00
2018-05-15T02:48:42.061Z,101765.37
2018-05-15T02:51:08.180Z,101762.73
2018-05-15T02:53:34.439Z,101768.47
2018-05-15T02:56:00.565Z,101769.39
2018-05-15T02:58:26.693Z,101766.30
2018-05-15T03:00:52.901Z,101768.07
2018-05-15T03:03:19.028Z,101769.39
2018-05-15T03:05:45.155Z,101765.47
2018-05-15T03:08:11.424Z,101767.75
2018-05-15T03:10:37.563Z,101773.48
2018-05-15T03:13:03.822Z,101770.88
2018-05-15T03:15:29.949Z,101771.36
2018-05-15T03:17:56.405Z,101772.25
2018-05-15T03:20:22.556Z,101769.20
2018-05-15T03:22:48.681Z,101763.91
2018-05-15T03:25:14.941Z,101765.75
2018-05-15T03:27:41.310Z,101765.80
2018-05-15T03:30:07.759Z,101768.08
2018-05-15T03:32:34.185Z,101773.38
2018-05-15T03:35:00.414Z,101771.21
2018-05-15T03:37:26.840Z,101770.37
2018-05-15T03:39:53.279Z,101776.17
2018-05-15T03:42:19.424Z,101779.30
2018-05-15T03:44:45.589Z,101770.20
2018-05-15T03:47:11.757Z,101776.50
2018-05-15T03:49:37.888Z,101781.43
2018-05-15T03:52:04.155Z,101779.74
2018-05-15T03:54:30.559Z,101783.75
2018-05-15T03:56:57.077Z,101778.83
2018-05-15T03:59:23.223Z,101776.58
2018-05-15T04:02:01.560Z,101784.08
2018-05-15T04:04:40.148Z,101775.73
2018-05-15T04:07:18.581Z,101773.90
2018-05-15T04:09:44.748Z,101776.55
2018-05-15T04:12:10.920Z,101774.30
2018-05-15T04:14:37.403Z,101774.26
2018-05-15T04:17:03.524Z,101763.69
2018-05-15T04:19:29.726Z,101770.28
2018-05-15T04:21:56.002Z,101766.28
2018-05-15T04:24:22.450Z,101765.31
2018-05-15T04:26:48.592Z,101772.01
2018-05-15T04:29:14.947Z,101768.96
2018-05-15T04:31:41.341Z,101767.69
2018-05-15T04:34:07.509Z,101763.76
2018-05-15T04:36:33.912Z,101771.33
2018-05-15T04:39:00.328Z,101770.05
2018-05-15T04:41:26.493Z,101773.58
2018-05-15T04:43:52.882Z,101775.86
2018-05-15T04:46:18.961Z,101770.57
2018-05-15T04:48:45.084Z,101768.17
2018-05-15T04:51:11.559Z,101774.25
2018-05-15T04:53:37.854Z,101773.21
2018-05-15T04:56:04.104Z,101781.91
2018-05-15T04:58:30.533Z,101785.44
2018-05-15T05:00:56.921Z,101788.05
2018-05-15T05:03:23.535Z,101784.92
2018-05-15T05:05:49.713Z,101785.84
2018-05-15T05:08:15.856Z,101787.60
2018-05-15T05:10:42.121Z,101790.56
2018-05-15T05:13:08.257Z,101786.56
2018-05-15T05:15:34.608Z,101790.20
2018-05-15T05:18:01.254Z,101795.17
2018-05-15T05:20:28.819Z,101796.22
2018-05-15T05:22:54.966Z,101789.20
2018-05-15T05:25:21.130Z,101802.80
2018-05-15T05:27:47.314Z,101797.98
2018-05-15T05:30:13.543Z,101800.98
2018-05-15T05:32:39.675Z,101801.11
2018-05-15T05:35:05.797Z,101803.39
2018-05-15T05:37:32.193Z,101799.34
2018-05-15T05:39:58.698Z,101795.70
2018-05-15T05:42:24.876Z,101802.75
2018-05-15T05:44:51.015Z,101797.73
2018-05-15T05:47:17.173Z,101802.95
2018-05-15T05:49:43.455Z,101803.35
2018-05-15T05:52:09.573Z,101800.62
2018-05-15T05:54:35.712Z,101797.41
2018-05-15T05:57:01.984Z,101802.70
2018-05-15T05:59:28.127Z,101804.06
2018-05-15T06:01:54.648Z,101802.79
2018-05-15T06:04:20.805Z,101807.59
2018-05-15T06:06:46.985Z,101814.69
2018-05-15T06:09:14.436Z,101811.12
2018-05-15T06:11:40.567Z,101815.38
2018-05-15T06:14:06.701Z,101812.25
2018-05-15T06:16:33.045Z,101816.17
2018-05-15T06:18:59.474Z,101820.94
2018-05-15T06:21:25.623Z,101819.95
2018-05-15T06:23:51.824Z,101819.10
2018-05-15T06:26:17.953Z,101821.70
2018-05-15T06:28:44.129Z,101823.98
2018-05-15T06:31:10.749Z,101817.48
2018-05-15T06:33:36.886Z,101813.70
2018-05-15T06:36:03.019Z,101818.92
2018-05-15T06:38:29.253Z,101813.67
2018-05-15T06:40:55.357Z,101810.52
2018-05-15T06:43:21.862Z,101811.47
2018-05-15T06:45:48.004Z,101813.59
2018-05-15T06:48:14.290Z,101808.39
2018-05-15T06:50:40.429Z,101810.14
2018-05-15T06:53:06.558Z,101815.02
2018-05-15T06:55:32.767Z,101813.95
2018-05-15T06:57:58.909Z,101813.05
2018-05-15T07:00:25.114Z,101813.34
2018-05-15T07:02:51.251Z,101814.19
2018-05-15T07:05:17.386Z,101814.41
2018-05-15T07:07:43.889Z,101816.02
2018-05-15T07:10:09.987Z,101813.23
2018-05-15T07:12:36.107Z,101816.59
2018-05-15T07:15:02.280Z,101810.06
2018-05-15T07:17:28.414Z,101813.59
2018-05-15T07:19:54.717Z,101808.38
2018-05-15T07:22:20.864Z,101810.33
2018-05-15T07:24:47.016Z,101811.91
2018-05-15T07:27:13.467Z,101811.54
2018-05-15T07:29:39.641Z,101807.14
2018-05-15T07:32:05.794Z,101813.34
2018-05-15T07:34:31.966Z,101810.88
2018-05-15T07:36:58.510Z,101813.37
2018-05-15T07:39:24.648Z,101802.73
2018-05-15T07:41:50.795Z,101806.92
2018-05-15T07:44:16.953Z,101809.27
2018-05-15T07:46:43.138Z,101810.15
2018-05-15T07:49:09.274Z,101808.28
2018-05-15T07:51:35.410Z,101808.17
2018-05-15T07:54:01.639Z,101809.37
2018-05-15T07:56:27.794Z,101815.29
2018-05-15T07:58:53.914Z,101808.20
2018-05-15T08:01:20.173Z,101815.88
2018-05-15T08:03:46.567Z,101816.28
2018-05-15T08:06:12.688Z,101814.92
2018-05-15T08:08:39.123Z,101816.61
2018-05-15T08:11:05.409Z,101819.58
2018-05-15T08:13:31.581Z,101818.81
2018-05-15T08:15:57.701Z,101826.97
2018-05-15T08:18:23.863Z,101821.86
2018-05-15T08:20:50.033Z,101818.98
2018-05-15T08:23:16.193Z,101818.81
2018-05-15T08:25:42.325Z,101814.52
2018-05-15T08:28:09.184Z,101825.34
2018-05-15T08:30:35.355Z,101824.98
2018-05-15T08:33:01.510Z,101818.84
2018-05-15T08:35:27.700Z,101824.41
2018-05-15T08:37:53.834Z,101819.49
2018-05-15T08:40:19.969Z,101822.77
2018-05-15T08:42:46.121Z,101826.03
2018-05-15T08:45:12.543Z,101822.31
2018-05-15T08:47:38.735Z,101817.21
2018-05-15T08:50:05.206Z,101818.13
2018-05-15T08:52:31.343Z,101823.86
2018-05-15T08:54:57.614Z,101823.02
2018-05-15T08:57:23.756Z,101815.56
2018-05-15T08:59:50.217Z,101814.20
2018-05-15T09:02:16.384Z,101818.98
2018-05-15T09:04:42.777Z,101813.65
2018-05-15T09:07:08.931Z,101812.61
2018-05-15T09:09:35.065Z,101816.09
2018-05-15T09:12:01.325Z,101817.22
2018-05-15T09:14:27.793Z,101819.78
2018-05-15T09:16:53.948Z,101820.43
2018-05-15T09:19:20.325Z,101822.03
2018-05-15T09:21:46.789Z,101818.06
2018-05-15T09:24:12.974Z,101822.27
2018-05-15T09:26:39.590Z,101815.78
2018-05-15T09:29:05.778Z,101816.02
2018-05-15T09:31:31.910Z,101811.12
2018-05-15T09:33:58.061Z,101811.96
2018-05-15T09:36:24.236Z,101808.48
2018-05-15T09:38:50.825Z,101815.38
2018-05-15T09:41:16.962Z,101806.06
2018-05-15T09:43:58.044Z,101809.16
2018-05-15T09:46:24.936Z,101804.30
2018-05-15T09:48:51.063Z,101803.81
2018-05-15T09:51:17.194Z,101802.06
2018-05-15T09:53:43.385Z,101806.78
2018-05-15T09:56:09.549Z,101806.17
2018-05-15T09:58:35.924Z,101803.53
2018-05-15T10:01:02.101Z,101802.03
2018-05-15T10:03:28.237Z,101802.28
2018-05-15T10:05:54.422Z,101803.48
2018-05-15T10:08:20.591Z,101808.48
2018-05-15T10:10:46.726Z,101806.98
2018-05-15T10:13:12.962Z,101805.09
2018-05-15T10:15:39.093Z,101807.12
2018-05-15T10:18:05.258Z,101808.75
2018-05-15T10:20:31.720Z,101798.91
2018-05-15T10:22:58.024Z,101802.92
2018-05-15T10:25:26.729Z,101796.80
2018-05-15T10:27:53.177Z,101790.61
2018-05-15T10:30:19.369Z,101795.24
2018-05-15T10:32:45.570Z,101793.27
2018-05-15T10:35:11.884Z,101781.56
2018-05-15T10:37:38.046Z,101782.31
2018-05-15T10:40:04.188Z,101782.97
2018-05-15T10:42:30.747Z,101784.47
2018-05-15T10:44:56.894Z,101774.17
2018-05-15T10:47:23.039Z,101778.01
2018-05-15T10:49:49.310Z,101777.08
2018-05-15T10:52:15.443Z,101780.52
2018-05-15T10:54:41.577Z,101774.64
2018-05-15T10:57:07.756Z,101773.70
2018-05-15T10:59:33.980Z,101773.22
2018-05-15T11:02:00.075Z,101773.95
2018-05-15T11:04:26.200Z,101775.49
2018-05-15T11:06:52.620Z,101767.88
2018-05-15T11:09:18.769Z,101767.88
2018-05-15T11:11:44.945Z,101765.13
2018-05-15T11:14:11.253Z,101775.43
2018-05-15T11:16:37.394Z,101767.28
2018-05-15T11:19:16.319Z,101761.59
2018-05-15T11:21:54.637Z,101760.41
2018-05-15T11:24:33.567Z,101756.59
2018-05-15T11:26:59.643Z,101754.03
2018-05-15T11:29:25.790Z,101753.25
2018-05-15T11:31:51.966Z,101756.19
2018-05-15T11:34:18.145Z,101748.52
2018-05-15T11:36:44.341Z,101749.45
2018-05-15T11:39:10.465Z,101748.66
2018-05-15T11:41:36.934Z,101744.96
2018-05-15T11:44:03.160Z,101748.22
2018-05-15T11:46:29.340Z,101746.25
2018-05-15T11:48:56.270Z,101738.08
2018-05-15T11:51:22.768Z,101740.00
2018-05-15T11:53:48.381Z,101737.30
2018-05-15T11:56:14.459Z,101740.25
2018-05-15T11:58:40.584Z,101733.64
2018-05-15T12:01:06.850Z,101732.93
2018-05-15T12:03:32.993Z,101728.25
2018-05-15T12:05:59.130Z,101729.64
2018-05-15T12:08:25.343Z,101726.34
2018-05-15T12:10:51.510Z,101726.22
2018-05-15T12:13:17.646Z,101729.05
2018-05-15T12:15:44.304Z,101726.89
2018-05-15T12:18:10.442Z,101723.17
2018-05-15T12:20:36.578Z,101721.19
2018-05-15T12:23:02.738Z,101719.99
2018-05-15T12:25:28.871Z,101718.94
2018-05-15T12:27:55.115Z,101719.48
2018-05-15T12:30:21.288Z,101716.05
2018-05-15T12:32:47.417Z,101716.12
2018-05-15T12:35:13.614Z,101713.97
2018-05-15T12:37:39.738Z,101703.61
2018-05-15T12:40:05.912Z,101711.59
2018-05-15T12:42:32.294Z,101707.22
2018-05-15T12:44:58.706Z,101706.66
2018-05-15T12:47:24.869Z,101705.95
2018-05-15T12:49:51.014Z,101701.39
2018-05-15T12:52:17.296Z,101701.41
2018-05-15T12:54:43.413Z,101691.15
2018-05-15T12:57:09.550Z,101688.03
2018-05-15T12:59:35.700Z,101688.07
2018-05-15T13:02:01.988Z,101689.04
2018-05-15T13:04:28.145Z,101683.67
2018-05-15T13:06:54.504Z,101686.83
2018-05-15T13:09:21.008Z,101679.23
2018-05-15T13:11:47.360Z,101684.92
2018-05-15T13:14:13.709Z,101680.87
2018-05-15T13:16:39.875Z,101683.05
2018-05-15T13:19:06.001Z,101678.94
2018-05-15T13:21:32.172Z,101674.45
2018-05-15T13:23:58.301Z,101674.39
2018-05-15T13:26:25.099Z,101673.83
2018-05-15T13:28:51.234Z,101669.42
2018-05-15T13:31:17.619Z,101662.61
2018-05-15T13:33:44.134Z,101669.23
2018-05-15T13:36:10.554Z,101660.31
2018-05-15T13:38:36.706Z,101661.95
2018-05-15T13:41:02.904Z,101651.16
2018-05-15T13:43:29.022Z,101660.72
2018-05-15T13:45:55.146Z,101656.60
2018-05-15T13:48:21.335Z,101650.22
2018-05-15T13:50:47.508Z,101650.58
2018-05-15T13:53:13.748Z,101638.56
2018-05-15T13:55:39.918Z,101640.14
2018-05-15T13:58:06.211Z,101641.34
2018-05-15T14:00:32.359Z,101644.95
2018-05-15T14:02:58.490Z,101636.09
2018-05-15T14:05:24.881Z,101634.06
2018-05-15T14:07:51.020Z,101632.34
2018-05-15T14:10:17.240Z,101620.13
2018-05-15T14:12:43.373Z,101619.37
2018-05-15T14:15:09.508Z,101619.98
2018-05-15T14:17:35.679Z,101616.85
2018-05-15T14:20:01.820Z,101616.37
2018-05-15T14:22:28.100Z,101618.65
2018-05-15T14:24:54.243Z,101620.70
2018-05-15T14:27:20.378Z,101628.06
2018-05-15T14:29:46.554Z,101618.76
2018-05-15T14:32:13.050Z,101617.20
2018-05-15T14:34:39.233Z,101613.47
2018-05-15T14:37:05.425Z,101612.91
2018-05-15T14:39:31.833Z,101609.11
2018-05-15T14:42:10.151Z,101603.54
2018-05-15T14:44:36.322Z,101605.41
2018-05-15T14:47:02.508Z,101604.06
2018-05-15T14:49:28.654Z,101602.90
2018-05-15T14:51:54.830Z,101593.19
2018-05-15T14:54:20.949Z,101603.01
2018-05-15T14:56:47.366Z,101595.30
2018-05-15T14:59:13.841Z,101600.41
2018-05-15T15:01:40.004Z,101595.50
2018-05-15T15:04:06.141Z,101593.30
2018-05-15T15:06:32.421Z,101592.38
2018-05-15T15:08:58.556Z,101596.23
2018-05-15T15:11:24.845Z,101596.19
2018-05-15T15:13:51.430Z,101593.28
2018-05-15T15:16:17.561Z,101586.52
2018-05-15T15:18:43.790Z,101591.73
2018-05-15T15:21:09.961Z,101585.22
2018-05-15T15:23:36.168Z,101586.50
2018-05-15T15:26:02.293Z,101588.15
2018-05-15T15:28:28.680Z,101584.26
2018-05-15T15:30:55.257Z,101589.14
2018-05-15T15:33:21.393Z,101588.50
2018-05-15T15:35:47.783Z,101582.44
2018-05-15T15:38:13.962Z,101580.19
2018-05-15T15:40:40.537Z,101573.92
2018-05-15T15:43:06.909Z,101573.24
2018-05-15T15:45:33.301Z,101570.75
2018-05-15T15:47:59.473Z,101573.86
2018-05-15T15:50:26.175Z,101571.26
2018-05-15T15:52:52.281Z,101567.77
2018-05-15T15:55:18.415Z,101558.80
2018-05-15T15:57:44.856Z,101565.37
2018-05-15T16:00:11.081Z,101562.47
2018-05-15T16:02:37.515Z,101563.57
2018-05-15T16:05:03.943Z,101562.84
2018-05-15T16:07:30.081Z,101561.21
2018-05-15T16:09:56.369Z,101558.23
2018-05-15T16:12:22.546Z,101552.14
2018-05-15T16:14:48.695Z,101551.17
2018-05-15T16:17:15.191Z,101546.84
2018-05-15T16:19:41.436Z,101542.22
2018-05-15T16:22:15.573Z,101546.09
2018-05-15T16:24:43.857Z,101551.00
2018-05-15T16:27:10.152Z,101554.97
2018-05-15T16:29:36.613Z,101559.48
2018-05-15T16:32:02.906Z,101554.30
2018-05-15T16:34:29.050Z,101559.89
2018-05-15T16:36:55.209Z,101558.64
2018-05-15T16:39:21.788Z,101558.70
2018-05-15T16:41:48.228Z,101558.73
2018-05-15T16:44:14.374Z,101562.66
2018-05-15T16:46:40.537Z,101558.00
2018-05-15T16:49:06.674Z,101560.58
2018-05-15T16:51:32.952Z,101559.39
2018-05-15T16:54:01.595Z,101558.23
2018-05-15T16:56:27.762Z,101555.52
2018-05-15T16:58:54.174Z,101554.47
2018-05-15T17:01:20.413Z,101559.26
2018-05-15T17:03:46.552Z,101560.34
2018-05-15T17:06:12.820Z,101562.41
2018-05-15T17:08:39.747Z,101560.83
2018-05-15T17:11:05.958Z,101556.45
2018-05-15T17:13:32.248Z,101550.86
2018-05-15T17:15:58.347Z,101546.56
2018-05-15T17:18:24.522Z,101549.52
2018-05-15T17:20:50.677Z,101547.97
2018-05-15T17:23:17.214Z,101542.55
2018-05-15T17:25:43.363Z,101551.32
2018-05-15T17:28:09.512Z,101545.08
2018-05-15T17:30:35.698Z,101548.47
2018-05-15T17:33:01.839Z,101546.42
2018-05-15T17:35:28.100Z,101544.21
2018-05-15T17:38:17.882Z,101550.35
2018-05-15T17:40:44.235Z,101549.39
2018-05-15T17:43:10.364Z,101548.98
2018-05-15T17:45:36.552Z,101549.63
2018-05-15T17:48:03.134Z,101547.64
2018-05-15T17:50:29.309Z,101550.21
2018-05-15T17:52:55.546Z,101555.85
2018-05-15T17:55:21.716Z,101556.16
2018-05-15T17:57:47.903Z,101555.27
2018-05-15T18:00:14.070Z,101557.38
2018-05-15T18:02:40.460Z,101554.84
2018-05-15T18:05:06.606Z,101551.87
2018-05-15T18:07:32.783Z,101552.00
2018-05-15T18:09:58.922Z,101548.73
2018-05-15T18:12:25.213Z,101550.40
2018-05-15T18:14:51.630Z,101551.34
2018-05-15T18:17:17.773Z,101554.09
2018-05-15T18:19:44.281Z,101548.75
2018-05-15T18:22:10.474Z,101547.22
2018-05-15T18:24:36.614Z,101545.19
2018-05-15T18:27:02.790Z,101542.63
2018-05-15T18:29:28.961Z,101540.53
2018-05-15T18:31:55.117Z,101535.34
2018-05-15T18:34:21.714Z,101540.28
2018-05-15T18:36:47.850Z,101539.22
2018-05-15T18:39:14.314Z,101540.47
2018-05-15T18:41:40.883Z,101545.91
2018-05-15T18:44:07.022Z,101547.41
2018-05-15T18:46:33.165Z,101543.55
2018-05-15T18:48:59.362Z,101546.59
2018-05-15T18:51:25.492Z,101551.55
2018-05-15T18:53:51.695Z,101547.24
2018-05-15T18:56:17.890Z,101550.39
2018-05-15T18:58:44.049Z,101554.45
2018-05-15T19:01:10.189Z,101554.95
2018-05-15T19:03:36.357Z,101556.38
2018-05-15T19:06:02.563Z,101558.22
2018-05-15T19:08:28.702Z,101556.06
2018-05-15T19:10:55.092Z,101558.33
2018-05-15T19:13:21.408Z,101556.66
2018-05-15T19:15:47.543Z,101554.97
2018-05-15T19:18:14.056Z,101567.39
2018-05-15T19:20:40.217Z,101562.09
2018-05-15T19:23:06.734Z,101565.69
2018-05-15T19:25:33.398Z,101571.93
2018-05-15T19:27:59.541Z,101568.01
2018-05-15T19:30:26.023Z,101574.25
2018-05-15T19:32:58.250Z,101572.09
2018-05-15T19:35:29.465Z,101570.88
2018-05-15T19:37:55.872Z,101570.02
2018-05-15T19:40:22.062Z,101575.83
2018-05-15T19:42:48.731Z,101574.55
2018-05-15T19:45:14.941Z,101573.72
2018-05-15T19:47:41.387Z,101573.28
2018-05-15T19:50:07.554Z,101575.98
2018-05-15T19:52:33.713Z,101571.17
2018-05-15T19:54:59.960Z,101566.77
2018-05-15T19:57:26.157Z,101567.20
2018-05-15T19:59:52.321Z,101572.11
2018-05-15T20:02:18.492Z,101575.66
2018-05-15T20:04:44.884Z,101580.13
2018-05-15T20:07:11.492Z,101578.86
2018-05-15T20:09:37.631Z,101580.69
2018-05-15T20:12:03.782Z,101586.92
2018-05-15T20:14:29.946Z,101582.66
2018-05-15T20:16:56.228Z,101576.97
2018-05-15T20:19:22.665Z,101575.20
2018-05-15T20:21:48.794Z,101571.23
2018-05-15T20:24:15.360Z,101576.59
2018-05-15T20:26:41.518Z,101576.59
2018-05-15T20:29:07.669Z,101575.81
2018-05-15T20:31:33.846Z,101574.09
2018-05-15T20:34:00.755Z,101562.48
2018-05-15T20:36:26.890Z,101578.12
2018-05-15T20:38:53.022Z,101578.73
2018-05-15T20:41:19.168Z,101573.92
2018-05-15T20:43:45.354Z,101573.09
2018-05-15T20:46:11.544Z,101572.16
2018-05-15T20:48:37.672Z,101570.88
2018-05-15T20:51:03.867Z,101572.20
2018-05-15T20:53:30.025Z,101573.97
2018-05-15T20:55:56.194Z,101572.60
2018-05-15T20:58:22.345Z,101574.27
2018-05-15T21:00:48.746Z,101574.75
2018-05-15T21:03:14.898Z,101575.53
2018-05-15T21:05:41.305Z,101570.62
2018-05-15T21:08:07.523Z,101574.16
2018-05-15T21:10:33.698Z,101577.75
2018-05-15T21:12:59.838Z,101569.84
2018-05-15T21:15:25.994Z,101569.94
2018-05-15T21:17:52.444Z,101573.53
2018-05-15T21:20:18.569Z,101570.98
2018-05-15T21:22:44.735Z,101571.49
2018-05-15T21:25:10.870Z,101568.88
2018-05-15T21:27:37.768Z,101565.80
2018-05-15T21:30:03.897Z,101578.22
2018-05-15T21:32:30.063Z,101576.34
2018-05-15T21:34:56.233Z,101573.21
2018-05-15T21:37:22.357Z,101575.86
2018-05-15T21:39:48.520Z,101580.33
2018-05-15T21:42:14.651Z,101585.23
2018-05-15T21:44:40.866Z,101583.92
2018-05-15T21:47:07.285Z,101581.31
2018-05-15T21:49:33.409Z,101587.94
2018-05-15T21:51:59.840Z,101577.34
2018-05-15T21:54:25.973Z,101585.30
2018-05-15T21:56:52.133Z,101586.68
2018-05-15T21:59:18.412Z,101586.68
2018-05-15T22:01:44.858Z,101587.61
2018-05-15T22:04:10.986Z,101583.14
2018-05-15T22:06:37.142Z,101577.00
2018-05-15T22:09:04.022Z,101587.02
2018-05-15T22:11:29.917Z,101584.85
2018-05-15T22:14:08.213Z,101585.29
2018-05-15T22:16:46.418Z,101585.78
2018-05-15T22:19:24.910Z,101590.66
2018-05-15T22:22:03.525Z,101587.62
2018-05-15T22:24:29.706Z,101586.78
2018-05-15T22:26:55.854Z,101581.96
2018-05-15T22:29:21.986Z,101581.52
2018-05-15T22:31:48.140Z,101580.21
2018-05-15T22:34:14.335Z,101578.48
2018-05-15T22:36:40.461Z,101579.44
2018-05-15T22:39:06.604Z,101570.16
2018-05-15T22:41:32.858Z,101578.98
2018-05-15T22:43:59.271Z,101582.56
2018-05-15T22:46:25.841Z,101578.20
2018-05-15T22:48:51.970Z,101575.59
2018-05-15T22:51:18.113Z,101576.44
2018-05-15T22:53:44.272Z,101572.91
2018-05-15T22:56:10.394Z,101573.84
2018-05-15T22:58:36.770Z,101581.34
2018-05-15T23:01:03.096Z,101572.52
2018-05-15T23:03:29.231Z,101573.00
2018-05-15T23:05:55.737Z,101578.31
2018-05-15T23:08:21.860Z,101579.73
2018-05-15T23:10:47.984Z,101581.06
2018-05-15T23:13:14.197Z,101581.11
2018-05-15T23:15:40.339Z,101577.59
2018-05-15T23:18:06.494Z,101577.62
2018-05-15T23:20:32.641Z,101578.52
2018-05-15T23:22:58.770Z,101571.06
2018-05-15T23:25:25.033Z,101572.97
2018-05-15T23:27:51.156Z,101571.20
2018-05-15T23:30:17.291Z,101576.08
2018-05-15T23:32:43.449Z,101573.48
2018-05-15T23:35:09.808Z,101574.41
2018-05-15T23:37:35.975Z,101576.23
2018-05-15T23:40:02.110Z,101576.30
2018-05-15T23:42:28.274Z,101574.09
2018-05-15T23:44:54.445Z,101571.94
2018-05-15T23:47:20.725Z,101569.78
2018-05-15T23:49:47.224Z,101570.32
2018-05-15T23:52:13.353Z,101569.09
2018-05-15T23:54:39.504Z,101570.87
2018-05-15T23:57:05.637Z,101571.02
2018-05-15T23:59:32.177Z,101571.11
